createdAt,value
2019-05-16T00:02:45.581Z,51.32
2019-05-16T00:06:09.001Z,50.78
2019-05-16T00:09:32.315Z,51.33
2019-05-16T00:12:55.672Z,51.56
2019-05-16T00:16:19.619Z,51.83
2019-05-16T00:19:42.762Z,52.17
2019-05-16T00:23:07.918Z,52.12
2019-05-16T00:26:31.025Z,52.97
2019-05-16T00:29:54.363Z,52.86
2019-05-16T00:33:18.359Z,53.39
2019-05-16T00:36:41.855Z,53.46
2019-05-16T00:40:05.532Z,53.80
2019-05-16T00:43:29.258Z,53.92
2019-05-16T00:46:52.541Z,54.29
2019-05-16T00:50:18.277Z,54.23
2019-05-16T00:53:41.820Z,54.41
2019-05-16T00:57:08.328Z,54.13
2019-05-16T01:00:49.786Z,54.76
2019-05-16T01:04:13.770Z,54.66
2019-05-16T01:07:39.159Z,55.26
2019-05-16T01:11:02.093Z,55.39
2019-05-16T01:14:25.798Z,55.46
2019-05-16T01:17:48.938Z,55.65
2019-05-16T01:21:12.527Z,55.50
2019-05-16T01:24:35.667Z,55.29
2019-05-16T01:27:58.940Z,55.57
2019-05-16T01:31:22.204Z,56.99
2019-05-16T01:34:45.508Z,56.02
2019-05-16T01:38:08.800Z,55.11
2019-05-16T01:41:31.948Z,56.39
2019-05-16T01:44:55.089Z,56.51
2019-05-16T01:48:19.203Z,55.80
2019-05-16T01:51:42.918Z,55.12
2019-05-16T01:55:08.324Z,55.74
2019-05-16T01:58:32.698Z,55.45
2019-05-16T02:02:00.616Z,56.21
2019-05-16T02:05:21.358Z,56.02
2019-05-16T02:08:44.806Z,55.82
2019-05-16T02:12:10.678Z,55.89
2019-05-16T02:15:33.141Z,55.59
2019-05-16T02:18:56.323Z,54.62
2019-05-16T02:22:20.281Z,55.95
2019-05-16T02:25:43.445Z,55.96
2019-05-16T02:29:06.891Z,56.06
2019-05-16T02:32:31.284Z,56.63
2019-05-16T02:35:55.749Z,56.60
2019-05-16T02:39:21.224Z,55.96
2019-05-16T02:42:44.442Z,55.96
2019-05-16T02:46:07.732Z,54.79
2019-05-16T02:49:34.092Z,54.11
2019-05-16T02:52:56.803Z,54.00
2019-05-16T02:56:21.153Z,52.62
2019-05-16T02:59:44.931Z,52.32
2019-05-16T03:03:11.658Z,52.12
2019-05-16T03:06:34.598Z,51.64
2019-05-16T03:10:01.530Z,52.23
2019-05-16T03:13:23.578Z,53.14
2019-05-16T03:16:50.586Z,53.86
2019-05-16T03:20:13.977Z,52.91
2019-05-16T03:23:37.385Z,52.23
2019-05-16T03:27:01.571Z,50.51
2019-05-16T03:30:25.181Z,51.20
2019-05-16T03:33:51.992Z,50.93
2019-05-16T03:37:14.584Z,50.61
2019-05-16T03:40:41.026Z,50.70
2019-05-16T03:44:03.212Z,50.75
2019-05-16T03:47:26.381Z,50.82
2019-05-16T03:50:50.806Z,50.85
2019-05-16T03:54:14.392Z,52.09
2019-05-16T03:57:37.591Z,51.27
2019-05-16T04:01:02.358Z,52.48
2019-05-16T04:04:25.965Z,51.33
2019-05-16T04:07:51.594Z,50.55
2019-05-16T04:11:18.236Z,48.47
2019-05-16T04:14:40.931Z,49.07
2019-05-16T04:18:04.682Z,48.17
2019-05-16T04:21:31.901Z,48.60
2019-05-16T04:24:53.031Z,49.44
2019-05-16T04:28:16.167Z,49.04
2019-05-16T04:31:41.314Z,48.64
2019-05-16T04:35:06.110Z,48.43
2019-05-16T04:38:39.638Z,50.15
2019-05-16T04:41:54.475Z,49.35
2019-05-16T04:45:20.920Z,49.30
2019-05-16T04:48:43.004Z,48.91
2019-05-16T04:52:06.330Z,48.43
2019-05-16T04:55:31.679Z,48.77
2019-05-16T04:58:54.963Z,48.55
2019-05-16T05:02:21.053Z,47.71
2019-05-16T05:05:43.398Z,46.11
2019-05-16T05:09:07.422Z,46.20
2019-05-16T05:12:31.746Z,45.47
2019-05-16T05:15:55.366Z,47.17
2019-05-16T05:19:20.232Z,46.28
2019-05-16T05:22:43.765Z,45.60
2019-05-16T05:26:07.266Z,45.13
2019-05-16T05:29:30.803Z,45.33
2019-05-16T05:38:31.644Z,45.53
2019-05-16T05:42:33.290Z,44.76
2019-05-16T05:46:01.386Z,44.68
2019-05-16T05:49:24.548Z,44.26
2019-05-16T05:52:50.525Z,43.32
2019-05-16T05:56:13.455Z,43.23
2019-05-16T05:59:36.891Z,44.42
2019-05-16T06:17:24.731Z,42.23
2019-05-16T06:20:47.982Z,42.80
2019-05-16T06:24:11.325Z,42.37
2019-05-16T06:27:34.929Z,41.80
2019-05-16T06:31:01.399Z,42.26
2019-05-16T06:34:23.417Z,41.17
2019-05-16T06:37:46.714Z,41.97
2019-05-16T06:41:10.682Z,41.10
2019-05-16T06:44:35.231Z,41.21
2019-05-16T06:48:00.637Z,42.01
2019-05-16T06:51:24.017Z,41.40
2019-05-16T06:54:49.943Z,42.19
2019-05-16T06:58:12.539Z,41.67
2019-05-16T07:01:35.786Z,43.31
2019-05-16T07:05:01.117Z,43.14
2019-05-16T07:08:24.586Z,42.72
2019-05-16T07:11:50.308Z,43.46
2019-05-16T07:15:15.531Z,42.71
2019-05-16T07:18:40.117Z,42.28
2019-05-16T07:22:03.696Z,41.88
2019-05-16T07:25:27.058Z,44.51
2019-05-16T07:28:51.587Z,43.40
2019-05-16T07:32:15.091Z,42.91
2019-05-16T07:35:40.144Z,43.32
2019-05-16T07:39:05.081Z,43.24
2019-05-16T07:42:30.796Z,41.71
2019-05-16T07:45:54.342Z,42.79
2019-05-16T07:49:19.652Z,42.74
2019-05-16T07:52:42.690Z,42.64
2019-05-16T07:56:05.821Z,42.22
2019-05-16T07:59:30.063Z,42.14
2019-05-16T08:02:53.436Z,43.09
2019-05-16T08:06:16.709Z,41.81
2019-05-16T08:09:40.374Z,41.89
2019-05-16T08:13:03.774Z,41.71
2019-05-16T08:16:27.114Z,42.25
2019-05-16T08:19:50.940Z,42.83
2019-05-16T08:23:14.326Z,42.98
2019-05-16T08:30:04.001Z,43.87
2019-05-16T08:33:27.323Z,46.37
2019-05-16T08:40:16.086Z,47.86
2019-05-16T08:43:41.441Z,46.03
2019-05-16T08:47:05.859Z,43.98
2019-05-16T08:50:11.102Z,42.77
2019-05-16T08:50:34.744Z,44.66
2019-05-16T08:53:54.948Z,45.26
2019-05-16T08:57:27.551Z,44.13
2019-05-16T09:00:43.830Z,46.22
2019-05-16T09:04:07.107Z,46.32
2019-05-16T09:07:31.865Z,43.89
2019-05-16T09:10:11.000Z,46.42
2019-05-16T09:11:02.086Z,43.67
2019-05-16T09:14:21.385Z,43.89
2019-05-16T09:17:47.260Z,44.28
2019-05-16T09:21:09.791Z,43.31
2019-05-16T09:24:33.097Z,44.01
2019-05-16T09:27:57.009Z,42.75
2019-05-16T09:31:20.691Z,42.02
2019-05-16T09:34:44.002Z,41.52
2019-05-16T09:38:07.323Z,41.69
2019-05-16T09:41:46.378Z,41.82
2019-05-16T09:44:57.731Z,41.11
2019-05-16T09:48:20.973Z,39.81
2019-05-16T09:51:46.515Z,40.17
2019-05-16T09:55:09.916Z,40.10
2019-05-16T09:58:33.331Z,39.22
2019-05-16T10:01:57.267Z,38.39
2019-05-16T10:05:21.428Z,36.38
2019-05-16T10:08:46.433Z,36.54
2019-05-16T10:12:15.218Z,35.13
2019-05-16T10:15:37.621Z,35.96
2019-05-16T10:19:00.522Z,36.21
2019-05-16T10:22:24.177Z,35.11
2019-05-16T10:25:48.208Z,36.18
2019-05-16T10:29:11.670Z,35.23
2019-05-16T10:32:36.501Z,35.64
2019-05-16T10:36:00.499Z,35.31
2019-05-16T10:39:23.771Z,37.04
2019-05-16T10:42:47.244Z,35.44
2019-05-16T10:46:11.155Z,35.33
2019-05-16T10:49:38.796Z,34.39
2019-05-16T10:53:22.604Z,34.27
2019-05-16T10:56:25.239Z,35.76
2019-05-16T11:00:05.414Z,35.21
2019-05-16T11:03:13.859Z,32.75
2019-05-16T11:06:37.367Z,31.71
2019-05-16T11:10:03.521Z,32.01
2019-05-16T11:13:27.998Z,30.46
2019-05-16T11:16:52.163Z,28.51
2019-05-16T11:20:20.343Z,26.39
2019-05-16T11:23:43.708Z,29.72
2019-05-16T11:27:07.490Z,31.79
2019-05-16T11:30:31.071Z,29.75
2019-05-16T11:33:57.308Z,30.74
2019-05-16T11:37:19.597Z,33.11
2019-05-16T11:40:42.892Z,32.01
2019-05-16T11:44:06.764Z,33.44
2019-05-16T11:47:30.185Z,34.75
2019-05-16T11:50:53.390Z,33.28
2019-05-16T11:54:16.918Z,31.90
2019-05-16T11:57:40.398Z,32.98
2019-05-16T12:01:04.073Z,30.18
2019-05-16T12:04:30.626Z,31.43
2019-05-16T12:07:56.978Z,33.23
2019-05-16T12:11:18.936Z,35.35
2019-05-16T12:14:42.391Z,34.39
2019-05-16T12:18:08.614Z,36.03
2019-05-16T12:21:32.042Z,33.52
2019-05-16T12:24:57.407Z,34.88
2019-05-16T12:28:20.734Z,34.62
2019-05-16T12:31:55.323Z,37.26
2019-05-16T12:35:10.136Z,35.00
2019-05-16T12:38:33.395Z,35.95
2019-05-16T12:41:59.413Z,34.58
2019-05-16T12:45:21.743Z,34.49
2019-05-16T12:48:47.240Z,34.84
2019-05-16T12:52:10.178Z,35.53
2019-05-16T12:55:33.514Z,33.83
2019-05-16T12:58:57.433Z,31.57
2019-05-16T13:02:21.884Z,33.74
2019-05-16T13:05:47.557Z,30.36
2019-05-16T13:09:10.273Z,30.88
2019-05-16T13:12:33.651Z,29.83
2019-05-16T13:15:57.961Z,31.81
2019-05-16T13:19:21.263Z,31.22
2019-05-16T13:22:47.144Z,30.00
2019-05-16T13:26:09.607Z,32.46
2019-05-16T13:29:32.957Z,34.32
2019-05-16T13:32:56.589Z,33.33
2019-05-16T13:36:20.075Z,31.43
2019-05-16T13:39:43.668Z,35.20
2019-05-16T13:43:09.580Z,36.62
2019-05-16T13:46:31.963Z,36.05
2019-05-16T13:49:55.328Z,38.62
2019-05-16T13:53:18.715Z,40.83
2019-05-16T13:56:41.910Z,40.63
2019-05-16T14:00:07.709Z,35.49
2019-05-16T14:03:32.090Z,35.18
2019-05-16T14:06:58.614Z,39.47
2019-05-16T14:10:20.589Z,39.01
2019-05-16T14:13:43.800Z,40.24
2019-05-16T14:17:13.959Z,38.02
2019-05-16T14:20:32.687Z,34.77
2019-05-16T14:23:56.893Z,35.84
2019-05-16T14:27:20.479Z,35.97
2019-05-16T14:30:46.571Z,35.26
2019-05-16T14:34:09.568Z,35.06
2019-05-16T14:37:33.541Z,36.00
2019-05-16T14:40:57.381Z,35.49
2019-05-16T14:44:21.411Z,37.21
2019-05-16T14:47:47.312Z,36.32
2019-05-16T14:51:10.182Z,37.11
2019-05-16T14:54:33.368Z,38.37
2019-05-16T14:57:56.832Z,38.96
2019-05-16T15:01:20.152Z,40.09
2019-05-16T15:04:43.858Z,39.28
2019-05-16T15:08:08.678Z,40.15
2019-05-16T15:11:32.201Z,40.40
2019-05-16T15:14:58.688Z,40.47
2019-05-16T15:18:20.713Z,39.97
2019-05-16T15:21:44.071Z,40.07
2019-05-16T15:25:08.177Z,40.75
2019-05-16T15:28:33.197Z,39.18
2019-05-16T15:31:57.371Z,39.26
2019-05-16T15:35:22.051Z,38.21
2019-05-16T15:38:47.248Z,38.60
2019-05-16T15:42:10.396Z,38.82
2019-05-16T15:45:43.479Z,39.10
2019-05-16T15:49:09.578Z,40.43
2019-05-16T15:52:31.335Z,39.84
2019-05-16T15:55:54.878Z,40.57
2019-05-16T15:59:18.481Z,39.02
2019-05-16T16:02:41.700Z,40.16
2019-05-16T16:06:06.815Z,39.19
2019-05-16T16:09:30.608Z,39.52
2019-05-16T16:12:56.888Z,39.32
2019-05-16T16:16:20.204Z,41.46
2019-05-16T16:19:43.472Z,40.00
2019-05-16T16:23:07.044Z,40.28
2019-05-16T16:26:31.649Z,41.71
2019-05-16T16:29:54.822Z,40.82
2019-05-16T16:33:25.517Z,40.96
2019-05-16T16:36:43.309Z,40.36
2019-05-16T16:40:11.089Z,40.97
2019-05-16T16:43:32.692Z,41.46
2019-05-16T16:46:57.308Z,41.86
2019-05-16T16:50:20.635Z,42.98
2019-05-16T16:53:43.788Z,41.85
2019-05-16T16:57:07.830Z,42.15
2019-05-16T17:00:31.629Z,41.59
2019-05-16T17:03:57.405Z,42.18
2019-05-16T17:07:20.410Z,40.66
2019-05-16T17:10:43.664Z,41.48
2019-05-16T17:14:07.019Z,42.50
2019-05-16T17:17:30.181Z,41.36
2019-05-16T17:20:53.567Z,42.20
2019-05-16T17:24:17.474Z,41.85
2019-05-16T17:27:40.802Z,43.31
2019-05-16T17:31:06.985Z,41.38
2019-05-16T17:34:29.773Z,41.04
2019-05-16T17:37:53.270Z,41.77
2019-05-16T17:41:16.931Z,42.69
2019-05-16T17:44:40.342Z,42.77
2019-05-16T17:48:04.033Z,42.63
2019-05-16T17:51:27.445Z,42.67
2019-05-16T17:54:53.268Z,41.88
2019-05-16T17:58:16.549Z,42.82
2019-05-16T18:01:43.020Z,44.05
2019-05-16T18:05:07.586Z,44.33
2019-05-16T18:08:50.005Z,45.01
2019-05-16T18:12:13.616Z,45.50
2019-05-16T18:15:37.030Z,45.05
2019-05-16T18:19:00.349Z,45.55
2019-05-16T18:22:23.611Z,44.67
2019-05-16T18:25:47.070Z,44.78
2019-05-16T18:29:10.889Z,45.18
2019-05-16T18:32:34.532Z,45.98
2019-05-16T18:35:58.132Z,45.75
2019-05-16T18:39:21.875Z,47.51
2019-05-16T18:42:47.398Z,46.68
2019-05-16T18:46:10.424Z,49.01
2019-05-16T18:49:36.586Z,48.31
2019-05-16T18:52:59.845Z,48.52
2019-05-16T18:56:23.516Z,48.20
2019-05-16T18:59:50.638Z,50.24
2019-05-16T19:03:16.469Z,55.21
2019-05-16T19:06:41.856Z,57.41
2019-05-16T19:10:07.813Z,57.96
2019-05-16T19:13:31.169Z,58.96
2019-05-16T19:17:02.266Z,60.25
2019-05-16T19:20:28.955Z,60.83
2019-05-16T19:23:52.683Z,62.53
2019-05-16T19:27:17.290Z,62.92
2019-05-16T19:30:40.920Z,63.62
2019-05-16T19:34:06.992Z,64.63
2019-05-16T19:37:30.685Z,66.48
2019-05-16T19:40:57.199Z,67.60
2019-05-16T19:44:23.424Z,67.47
2019-05-16T19:47:47.147Z,67.31
2019-05-16T19:51:11.092Z,67.04
2019-05-16T19:54:36.515Z,66.44
2019-05-16T19:58:00.361Z,66.57
2019-05-16T20:01:23.621Z,66.91
2019-05-16T20:04:49.284Z,66.77
2019-05-16T20:08:12.947Z,67.83
2019-05-16T20:11:37.000Z,68.43
2019-05-16T20:15:07.883Z,68.35
2019-05-16T20:18:27.347Z,67.72
2019-05-16T20:21:52.653Z,67.54
2019-05-16T20:25:16.535Z,67.48
2019-05-16T20:28:40.281Z,67.85
2019-05-16T20:32:03.563Z,67.58
2019-05-16T20:35:27.132Z,68.36
2019-05-16T20:38:51.203Z,68.40
2019-05-16T20:42:16.928Z,68.23
2019-05-16T20:45:39.949Z,69.16
2019-05-16T20:49:03.494Z,69.07
2019-05-16T20:52:26.966Z,68.08
2019-05-16T20:55:50.758Z,68.07
2019-05-16T20:59:14.013Z,68.27
2019-05-16T21:02:37.983Z,68.47
2019-05-16T21:06:01.518Z,69.41
2019-05-16T21:09:26.247Z,69.48
2019-05-16T21:12:49.910Z,68.49
2019-05-16T21:16:13.398Z,68.42
2019-05-16T21:19:39.258Z,69.05
2019-05-16T21:23:03.939Z,69.81
2019-05-16T21:26:28.542Z,68.69
2019-05-16T21:29:51.891Z,70.21
2019-05-16T21:33:18.448Z,70.18
2019-05-16T21:36:41.483Z,71.70
2019-05-16T21:40:07.994Z,72.94
2019-05-16T21:43:34.073Z,73.37
2019-05-16T21:46:57.849Z,73.83
2019-05-16T21:50:21.580Z,74.68
2019-05-16T21:53:46.819Z,74.07
2019-05-16T21:57:10.272Z,74.21
2019-05-16T22:00:41.753Z,74.82
2019-05-16T22:04:07.375Z,76.31
2019-05-16T22:07:33.420Z,76.59
2019-05-16T22:10:57.397Z,76.07
2019-05-16T22:14:29.234Z,75.93
2019-05-16T22:17:52.647Z,76.68
2019-05-16T22:21:16.740Z,76.04
2019-05-16T22:24:40.322Z,76.35
2019-05-16T22:28:03.653Z,77.36
2019-05-16T22:31:27.463Z,76.85
2019-05-16T22:34:50.735Z,76.30
2019-05-16T22:38:16.703Z,76.54
2019-05-16T22:41:39.707Z,76.63
2019-05-16T22:45:03.831Z,76.96
2019-05-16T22:48:28.094Z,76.65
2019-05-16T22:51:51.606Z,75.89
2019-05-16T22:55:17.456Z,75.92
2019-05-16T22:58:40.611Z,76.61
2019-05-16T23:02:11.024Z,75.82
2019-05-16T23:05:31.033Z,75.87
2019-05-16T23:08:56.251Z,75.74
2019-05-16T23:12:19.730Z,74.63
2019-05-16T23:15:43.341Z,74.85
2019-05-16T23:19:06.756Z,75.40
2019-05-16T23:22:30.296Z,75.44
2019-05-16T23:25:53.546Z,74.19
2019-05-16T23:29:17.398Z,74.68
2019-05-16T23:32:40.582Z,74.34
2019-05-16T23:36:03.875Z,74.40
2019-05-16T23:39:27.170Z,74.97
2019-05-16T23:42:50.396Z,74.83
2019-05-16T23:46:13.779Z,74.97
2019-05-16T23:49:41.800Z,74.83
2019-05-16T23:53:07.038Z,74.37
2019-05-16T23:56:29.996Z,74.34
2019-05-16T23:59:53.220Z,74.76
